Shevlin, MN (56676)

4:55 AM CDT on August 30, 2015 (GMT -0500)
Bemidji-Beltrami County | | Change Station
CLOSE
Current Station
Airport
Location: Bemidji,
Elevation: 1378 ft
Nearby Weather Stations

Elev 1378 ft 47.51 °N, 94.93 °W | Updated 22 minutes ago

Clear
Clear
62 °F
Feels Like 62 °F
N
6
Wind Variable Wind from South

Today
High -- | Low -- °F
--% Chance of Precip.
Yesterday
High -- | Low -- °F
Precip. -- in
6:36 AM 8:05 PM
Full, 99% visible
Pressure 29.88 in
Visibility 10.0 miles
Clouds Clear
Dew Point 61 °F
Humidity 97%
Rainfall 0.00 in
Snow Depth Not available.
UV 0 out of 12
Pollen 10.40 out of 12
Air Quality Not available.
Flu Activity Not available.
METAR KBJI 300933Z AUTO 17005KT 10SM CLR 17/16 A2988 RMK AO2 T01650160
Pressure 29.88 in
Visibility 10.0 miles
Clouds Clear
Dew Point 61 °F
Humidity 97%
Rainfall 0.00 in
Snow Depth Not available.
UV 0 out of 12
Pollen 10.40 out of 12
Air Quality Not available.
Flu Activity Not available.
METAR KBJI 300933Z AUTO 17005KT 10SM CLR 17/16 A2988 RMK AO2 T01650160

10-Day Weather Forecast

×

Almanac

Astronomy

Aug. 30, 2015 Rise Set
Actual Time
Civil Twilight
Nautical Twilight
Astronomical Twilight
Moon
Length of Visible Light
Length of Day
Tomorrow will be .
, % of the Moon is Illuminated

Today's Extremes

State Highs State Lows

Community

WunderPhotos

Upload Photos

1,850,919 photos uploaded!

WunderBlogs® & News

Nearby

Air Quality

  Air Quality AQ Index Pollutant
Not available.

Snow Depth

Station Depth Elevation

Earthquake Activity

City Distance Mag. Time & Date
Minimum magnitude displayed is 2.5.

Coastal Water Temperatures

Place Temperature

Stations

Nearby Weather Stations

Station Location Temp. Windchill Dew Point Humidity Wind Precip. Elev Updated Type